Time;durP1;ratioP1;P1;durP2;ratioP2;P2;SDS_P1;SDS_P2;PMS_P1;PMS_P2;Temp;Humidity;BMP_temperature;BMP_pressure;BME280_temperature;BME280_humidity;BME280_pressure;Samples;Min_cycle;Max_cycle;Signal;HPM_P1;HPM_P2
2023/12/24 00:02:14;;;;;;;1.62;0.60;;;12.40;72.80;;;;;;2509103;55;21336;-70
2023/12/24 00:04:43;;;;;;;2.35;0.68;;;12.50;72.90;;;;;;2508790;55;21073;-69
2023/12/24 00:07:12;;;;;;;2.12;0.68;;;12.30;72.50;;;;;;2509278;55;20933;-69
2023/12/24 00:09:39;;;;;;;1.80;0.60;;;12.30;72.40;;;;;;2278006;56;20980;-70
2023/12/24 00:12:08;;;;;;;1.90;0.80;;;12.30;72.70;;;;;;2508626;54;21071;-70
2023/12/24 00:14:36;;;;;;;1.27;0.68;;;12.40;73.40;;;;;;2278348;56;20951;-69
2023/12/24 00:17:03;;;;;;;1.58;0.57;;;12.30;72.70;;;;;;2277076;56;21540;-69
2023/12/24 00:19:29;;;;;;;1.60;0.60;;;12.40;72.60;;;;;;2277746;55;21000;-69
2023/12/24 00:21:56;;;;;;;0.93;0.47;;;12.40;72.60;;;;;;2508881;55;20941;-69
2023/12/24 00:24:22;;;;;;;1.05;0.43;;;12.40;72.60;;;;;;2509388;55;20997;-70
2023/12/24 00:26:48;;;;;;;1.35;0.60;;;12.40;72.80;;;;;;2276990;55;22244;-69
2023/12/24 00:29:14;;;;;;;1.45;0.50;;;12.40;72.50;;;;;;2509135;55;21796;-70
2023/12/24 00:31:41;;;;;;;1.02;0.40;;;12.40;72.40;;;;;;2275216;57;21005;-69
2023/12/24 00:34:13;;;;;;;1.35;0.52;;;12.40;72.50;;;;;;2501629;55;20992;-70
2023/12/24 00:36:39;;;;;;;1.37;0.52;;;12.40;72.40;;;;;;2276634;56;20972;-69
2023/12/24 00:39:06;;;;;;;0.93;0.47;;;12.40;72.50;;;;;;2508921;55;20956;-69
2023/12/24 00:41:32;;;;;;;1.73;0.57;;;12.40;72.60;;;;;;2509197;55;21743;-69
2023/12/24 00:43:58;;;;;;;2.30;0.50;;;12.40;72.60;;;;;;2509672;54;20996;-69
2023/12/24 00:46:24;;;;;;;1.58;0.50;;;12.40;72.60;;;;;;2508317;54;21872;-69
2023/12/24 00:48:52;;;;;;;1.52;0.57;;;12.40;72.70;;;;;;2277585;56;20999;-70
2023/12/24 00:51:19;;;;;;;1.55;0.60;;;12.40;72.70;;;;;;2276676;57;20996;-69
2023/12/24 00:53:46;;;;;;;1.98;0.50;;;12.40;72.60;;;;;;2277173;55;20964;-69
2023/12/24 00:59:40;;;;;;;1.35;0.65;;;12.40;71.80;;;;;;2511674;55;21061;-69
2023/12/24 01:02:06;;;;;;;2.37;0.70;;;12.40;72.70;;;;;;2259365;55;20948;-69
2023/12/24 01:04:37;;;;;;;2.28;0.60;;;12.40;72.70;;;;;;2283310;56;20956;-69
2023/12/24 01:07:06;;;;;;;1.55;0.60;;;12.40;72.60;;;;;;2277586;56;21017;-70
2023/12/24 01:10:16;;;;;;;1.65;0.60;;;12.40;72.60;;;;;;2510235;54;21828;-70
2023/12/24 01:12:43;;;;;;;1.30;0.50;;;12.40;71.80;;;;;;2509486;55;21023;-70
2023/12/24 01:15:09;;;;;;;2.12;0.60;;;12.40;72.70;;;;;;2509498;55;20955;-70
2023/12/24 01:17:36;;;;;;;1.17;0.40;;;12.40;72.80;;;;;;2507901;55;21806;-69
2023/12/24 01:20:12;;;;;;;1.15;0.43;;;12.40;72.80;;;;;;2509278;55;21668;-69
2023/12/24 01:22:41;;;;;;;1.70;0.50;;;12.40;72.30;;;;;;2283623;55;21007;-70
2023/12/24 01:25:09;;;;;;;1.60;0.52;;;12.40;72.80;;;;;;2509362;55;21820;-69
2023/12/24 01:27:38;;;;;;;1.23;0.50;;;12.40;72.80;;;;;;2277570;57;21036;-69
2023/12/24 01:30:07;;;;;;;1.95;0.55;;;12.40;72.60;;;;;;2511271;55;21096;-69
2023/12/24 01:32:33;;;;;;;2.37;0.60;;;12.40;72.70;;;;;;2278037;56;21009;-69
2023/12/24 01:35:00;;;;;;;1.08;0.50;;;12.40;72.70;;;;;;2277083;56;20920;-70
2023/12/24 01:37:27;;;;;;;1.95;0.62;;;12.40;72.50;;;;;;2274706;55;21051;-69
2023/12/24 01:39:54;;;;;;;1.58;0.52;;;12.40;72.50;;;;;;2269653;55;20997;-69
2023/12/24 01:42:20;;;;;;;1.20;0.60;;;12.40;72.60;;;;;;2260087;55;20994;-69
2023/12/24 01:44:47;;;;;;;1.58;0.50;;;12.40;72.70;;;;;;2508717;55;20968;-70
2023/12/24 01:47:13;;;;;;;2.00;0.50;;;12.40;72.80;;;;;;2508492;55;20984;-69
2023/12/24 01:49:45;;;;;;;1.23;0.52;;;12.40;72.80;;;;;;2276917;55;20980;-68
2023/12/24 01:52:12;;;;;;;2.12;0.70;;;12.40;72.80;;;;;;2276382;57;21387;-69
2023/12/24 01:54:40;;;;;;;2.05;0.57;;;12.40;72.80;;;;;;2507956;55;20990;-69
2023/12/24 01:57:06;;;;;;;2.00;0.52;;;12.40;72.80;;;;;;2508793;55;21438;-69
2023/12/24 01:59:34;;;;;;;1.60;0.60;;;12.40;72.80;;;;;;2275949;56;20945;-69
2023/12/24 02:02:00;;;;;;;1.45;0.60;;;12.40;72.60;;;;;;2509163;54;21784;-70
2023/12/24 02:04:29;;;;;;;1.67;0.68;;;12.40;72.60;;;;;;2275973;55;20968;-69
2023/12/24 02:06:55;;;;;;;1.60;0.57;;;12.40;72.50;;;;;;2508642;54;21070;-70
2023/12/24 02:09:22;;;;;;;1.98;0.70;;;12.40;72.60;;;;;;2507924;55;20988;-70
2023/12/24 02:11:48;;;;;;;0.85;0.40;;;12.40;72.60;;;;;;2276785;57;21043;-69
2023/12/24 02:14:15;;;;;;;1.95;0.60;;;12.40;72.60;;;;;;2507428;55;20980;-69
2023/12/24 02:16:42;;;;;;;1.33;0.50;;;12.40;72.70;;;;;;2503266;55;21047;-70
2023/12/24 02:19:18;;;;;;;1.60;0.70;;;12.40;72.80;;;;;;2235440;57;21897;-69
2023/12/24 02:21:44;;;;;;;1.55;0.65;;;12.40;72.60;;;;;;2490099;54;20969;-69
2023/12/24 02:24:14;;;;;;;1.25;0.50;;;12.40;72.60;;;;;;2269120;56;20959;-69
2023/12/24 02:30:13;;;;;;;0.90;0.47;;;12.40;72.50;;;;;;2259389;55;21451;-68
2023/12/24 02:32:41;;;;;;;1.37;0.50;;;12.40;72.70;;;;;;2481782;55;20968;-69
2023/12/24 02:35:08;;;;;;;0.82;0.50;;;12.40;72.70;;;;;;2256186;57;21536;-68
2023/12/24 02:37:35;;;;;;;1.55;0.50;;;12.40;72.60;;;;;;2261996;56;20981;-69
2023/12/24 02:40:01;;;;;;;1.65;0.60;;;12.40;72.70;;;;;;2255930;56;20986;-69
2023/12/24 02:42:27;;;;;;;0.98;0.50;;;12.40;72.60;;;;;;2251699;56;20962;-69
2023/12/24 02:44:54;;;;;;;1.75;0.60;;;12.40;72.80;;;;;;2483327;55;20949;-69
2023/12/24 02:47:20;;;;;;;1.40;0.50;;;12.40;72.70;;;;;;2477396;55;21542;-70
2023/12/24 02:49:46;;;;;;;1.40;0.55;;;12.30;72.60;;;;;;2493573;55;20946;-70
2023/12/24 02:52:12;;;;;;;0.93;0.50;;;12.30;72.50;;;;;;2502819;54;21819;-70
2023/12/24 02:54:39;;;;;;;1.67;0.55;;;12.40;72.70;;;;;;2271830;56;20934;-69
2023/12/24 02:57:05;;;;;;;1.52;0.80;;;12.30;72.60;;;;;;2274560;56;21029;-70
2023/12/24 02:59:33;;;;;;;1.23;0.50;;;12.30;72.70;;;;;;2489421;55;21002;-68
2023/12/24 03:01:59;;;;;;;1.23;0.40;;;12.30;72.70;;;;;;2261669;56;21023;-70
2023/12/24 03:04:25;;;;;;;3.00;0.77;;;12.30;72.70;;;;;;2477131;55;21010;-69
2023/12/24 03:06:52;;;;;;;1.95;0.60;;;12.30;72.80;;;;;;2482265;55;21079;-69
2023/12/24 03:09:19;;;;;;;0.75;0.40;;;12.30;72.60;;;;;;2255141;55;21026;-69
2023/12/24 03:11:45;;;;;;;1.85;0.73;;;12.30;72.70;;;;;;2478819;55;21078;-70
2023/12/24 03:14:13;;;;;;;1.90;0.60;;;12.40;72.80;;;;;;2251277;55;20951;-68
2023/12/24 03:16:39;;;;;;;1.73;0.57;;;12.40;72.80;;;;;;2236147;56;21721;-69
2023/12/24 03:19:05;;;;;;;1.37;0.52;;;12.40;72.80;;;;;;2475866;55;20962;-70
2023/12/24 03:21:32;;;;;;;1.67;0.57;;;12.40;72.80;;;;;;2243616;56;21418;-69
2023/12/24 03:23:58;;;;;;;1.15;0.40;;;12.40;72.80;;;;;;2234875;56;20991;-70
2023/12/24 03:26:24;;;;;;;1.77;0.60;;;12.40;72.70;;;;;;2465037;55;21114;-70
2023/12/24 03:28:51;;;;;;;1.37;0.52;;;12.30;72.50;;;;;;2238745;56;21098;-69
2023/12/24 03:31:18;;;;;;;1.00;0.50;;;12.40;72.70;;;;;;2236754;57;20969;-70
2023/12/24 03:33:44;;;;;;;1.15;0.50;;;12.40;72.70;;;;;;2472400;55;21050;-69
2023/12/24 03:36:11;;;;;;;1.70;0.70;;;12.30;72.60;;;;;;2247237;57;21084;-68
2023/12/24 03:38:37;;;;;;;0.93;0.40;;;12.30;72.60;;;;;;2239296;55;20963;-69
2023/12/24 03:41:04;;;;;;;1.85;0.68;;;12.30;72.60;;;;;;2478555;54;20974;-69
2023/12/24 03:43:33;;;;;;;1.58;0.70;;;12.30;72.60;;;;;;2472395;55;20986;-69
2023/12/24 03:46:00;;;;;;;1.25;0.57;;;12.30;72.50;;;;;;2470180;56;21066;-70
2023/12/24 03:48:26;;;;;;;1.08;0.50;;;12.40;72.70;;;;;;2242535;56;20950;-69
2023/12/24 03:50:53;;;;;;;1.00;0.47;;;12.30;72.70;;;;;;2240276;57;21043;-69
2023/12/24 03:53:20;;;;;;;0.90;0.50;;;12.30;72.70;;;;;;2460332;55;21042;-70
2023/12/24 03:55:48;;;;;;;1.45;0.60;;;12.40;72.80;;;;;;2253063;56;20970;-70
2023/12/24 03:58:14;;;;;;;1.60;0.70;;;12.30;72.70;;;;;;2248703;55;20963;-70
2023/12/24 04:00:41;;;;;;;1.62;0.50;;;12.40;72.80;;;;;;2462777;55;21060;-70
2023/12/24 04:03:08;;;;;;;1.42;0.50;;;12.40;72.90;;;;;;2240639;57;20970;-70
2023/12/24 04:05:35;;;;;;;1.10;0.50;;;12.40;72.80;;;;;;2247013;56;21019;-69
2023/12/24 04:08:01;;;;;;;0.85;0.40;;;12.40;72.80;;;;;;2233223;57;21511;-69
2023/12/24 04:10:30;;;;;;;2.10;0.70;;;12.40;72.90;;;;;;2235060;56;21009;-70
2023/12/24 04:13:03;;;;;;;2.70;0.90;;;12.40;72.80;;;;;;2270778;56;20956;-69
2023/12/24 04:15:30;;;;;;;1.60;0.60;;;12.40;72.70;;;;;;2480747;55;21023;-69
2023/12/24 04:17:57;;;;;;;1.45;0.50;;;12.40;72.80;;;;;;2485306;54;21006;-69
2023/12/24 04:20:23;;;;;;;1.27;0.55;;;12.40;72.80;;;;;;2256971;54;20951;-69
2023/12/24 04:22:52;;;;;;;1.58;0.50;;;12.40;72.80;;;;;;2269031;55;20978;-69
2023/12/24 04:25:20;;;;;;;1.30;0.57;;;12.40;72.70;;;;;;2488596;55;21003;-69
2023/12/24 04:27:50;;;;;;;1.95;0.60;;;12.40;72.80;;;;;;2491110;54;21494;-69
2023/12/24 04:30:17;;;;;;;1.58;0.60;;;12.40;72.90;;;;;;2501654;54;21030;-70
2023/12/24 04:32:45;;;;;;;1.60;0.52;;;12.40;73.00;;;;;;2267223;56;21029;-68
2023/12/24 04:35:14;;;;;;;1.12;0.50;;;12.40;73.00;;;;;;2487156;54;21345;-70
2023/12/24 04:37:41;;;;;;;1.05;0.40;;;12.50;73.00;;;;;;2482108;55;20962;-69
2023/12/24 04:40:08;;;;;;;1.48;0.60;;;12.50;73.10;;;;;;2261943;55;21015;-69
2023/12/24 04:42:37;;;;;;;1.80;0.60;;;12.40;72.90;;;;;;2513521;54;21264;-70
2023/12/24 04:45:08;;;;;;;1.48;0.50;;;12.50;73.00;;;;;;2281363;56;21076;-69
2023/12/24 04:47:34;;;;;;;2.87;0.70;;;12.50;73.10;;;;;;2512300;55;21027;-70
2023/12/24 04:50:00;;;;;;;2.00;0.62;;;12.50;73.00;;;;;;2263976;56;20952;-69
2023/12/24 04:52:27;;;;;;;1.30;0.65;;;12.50;73.00;;;;;;2513872;55;20917;-70
2023/12/24 04:54:53;;;;;;;1.20;0.57;;;12.50;73.00;;;;;;2514569;54;21008;-69
2023/12/24 04:57:19;;;;;;;1.33;0.55;;;12.50;73.00;;;;;;2513186;55;20984;-69
2023/12/24 04:59:45;;;;;;;1.55;0.50;;;12.50;72.90;;;;;;2280676;56;21379;-69
2023/12/24 05:02:12;;;;;;;1.45;0.60;;;12.50;73.00;;;;;;2281683;55;21024;-70
2023/12/24 05:04:39;;;;;;;1.15;0.43;;;12.50;72.90;;;;;;2280034;56;21061;-69
2023/12/24 05:07:05;;;;;;;3.53;0.60;;;12.50;72.90;;;;;;2507651;55;21550;-69
2023/12/24 05:09:31;;;;;;;0.90;0.50;;;12.50;72.90;;;;;;2498075;55;20980;-68
2023/12/24 05:11:58;;;;;;;0.85;0.47;;;12.50;73.00;;;;;;2281780;56;20988;-70
2023/12/24 05:14:25;;;;;;;1.52;0.60;;;12.50;72.80;;;;;;2514236;55;21007;-68
2023/12/24 05:16:51;;;;;;;1.25;0.60;;;12.50;72.80;;;;;;2284017;56;21113;-69
2023/12/24 05:19:18;;;;;;;1.75;0.60;;;12.50;73.00;;;;;;2280070;55;20991;-69
2023/12/24 05:21:44;;;;;;;1.20;0.55;;;12.50;72.90;;;;;;2505498;55;22021;-69
2023/12/24 05:24:10;;;;;;;1.40;0.43;;;12.50;72.90;;;;;;2514052;54;21020;-70
2023/12/24 05:26:37;;;;;;;1.33;0.68;;;12.60;73.00;;;;;;2514192;55;21004;-69
2023/12/24 05:29:03;;;;;;;2.37;0.60;;;12.60;72.90;;;;;;2275567;56;20933;-70
2023/12/24 05:31:30;;;;;;;2.47;0.75;;;12.60;73.10;;;;;;2272021;56;21000;-69
2023/12/24 05:33:58;;;;;;;1.92;0.60;;;12.60;73.00;;;;;;2513776;55;21035;-70
2023/12/24 05:36:24;;;;;;;1.10;0.50;;;12.60;73.20;;;;;;2282358;55;21016;-69
2023/12/24 05:38:50;;;;;;;1.45;0.55;;;12.60;73.60;;;;;;2280479;56;20988;-70
2023/12/24 05:41:16;;;;;;;1.67;0.50;;;12.60;73.20;;;;;;2281459;56;21468;-70
2023/12/24 05:43:43;;;;;;;0.60;0.40;;;12.60;73.10;;;;;;2280638;56;20972;-69
2023/12/24 05:46:13;;;;;;;1.37;0.50;;;12.60;73.00;;;;;;2514709;55;21776;-69
2023/12/24 05:48:40;;;;;;;0.90;0.43;;;12.60;72.70;;;;;;2265948;56;21013;-69
2023/12/24 05:51:06;;;;;;;1.23;0.50;;;12.60;72.80;;;;;;2514367;55;20936;-69
2023/12/24 05:53:32;;;;;;;1.77;0.40;;;12.70;73.00;;;;;;2513734;55;21456;-69
2023/12/24 05:55:59;;;;;;;1.85;0.65;;;12.70;73.00;;;;;;2514870;54;21315;-70
2023/12/24 05:58:25;;;;;;;0.75;0.30;;;12.70;73.00;;;;;;2515169;55;21567;-69
2023/12/24 06:00:55;;;;;;;2.28;0.40;;;12.70;72.90;;;;;;2513716;54;20948;-69
2023/12/24 06:03:21;;;;;;;3.40;0.95;;;12.70;72.70;;;;;;2273237;55;20974;-71
2023/12/24 06:05:48;;;;;;;4.15;1.50;;;12.70;73.00;;;;;;2503945;55;21079;-70
2023/12/24 06:08:17;;;;;;;3.78;1.08;;;12.70;73.00;;;;;;2514706;54;21019;-70
2023/12/24 06:10:44;;;;;;;2.30;0.60;;;12.70;72.90;;;;;;2514132;55;20950;-70
2023/12/24 06:13:11;;;;;;;1.33;0.50;;;12.70;72.90;;;;;;2281534;56;20996;-69
2023/12/24 06:15:38;;;;;;;1.12;0.43;;;12.70;72.90;;;;;;2280657;56;20925;-69
2023/12/24 06:18:05;;;;;;;0.82;0.40;;;12.70;72.80;;;;;;2275881;56;20997;-70
2023/12/24 06:20:34;;;;;;;0.95;0.40;;;12.70;72.90;;;;;;2502986;54;21020;-69
2023/12/24 06:23:03;;;;;;;0.80;0.30;;;12.70;72.80;;;;;;2281672;56;20995;-70
2023/12/24 06:25:29;;;;;;;0.75;0.32;;;12.70;72.80;;;;;;2515169;55;21047;-70
2023/12/24 06:27:56;;;;;;;1.20;0.40;;;12.70;72.60;;;;;;2281034;56;21409;-70
2023/12/24 06:30:23;;;;;;;0.43;0.30;;;12.70;72.60;;;;;;2514309;54;21416;-69
2023/12/24 06:32:49;;;;;;;2.83;0.50;;;12.70;72.70;;;;;;2280177;56;21615;-69
2023/12/24 06:35:16;;;;;;;0.70;0.30;;;12.70;72.70;;;;;;2281612;55;21032;-69
2023/12/24 06:37:42;;;;;;;0.35;0.20;;;12.70;72.70;;;;;;2514031;54;20980;-70
2023/12/24 06:40:09;;;;;;;1.23;0.60;;;12.70;72.70;;;;;;2514505;55;20956;-70
2023/12/24 06:42:36;;;;;;;1.67;0.50;;;12.70;72.20;;;;;;2491871;54;20968;-69
2023/12/24 06:45:02;;;;;;;0.50;0.20;;;12.70;72.60;;;;;;2514979;54;20940;-70
2023/12/24 06:47:29;;;;;;;0.98;0.30;;;12.70;72.60;;;;;;2277207;56;21426;-69
2023/12/24 06:49:55;;;;;;;0.70;0.30;;;12.70;72.70;;;;;;2269634;55;21008;-70
2023/12/24 06:52:25;;;;;;;1.20;0.30;;;12.70;72.90;;;;;;2513446;55;21494;-70
2023/12/24 06:54:51;;;;;;;0.35;0.20;;;12.70;72.70;;;;;;2280435;56;22077;-70
2023/12/24 06:57:18;;;;;;;0.82;0.30;;;12.70;72.70;;;;;;2514798;55;20916;-70
2023/12/24 06:59:44;;;;;;;0.47;0.20;;;12.70;72.80;;;;;;2513755;55;20952;-69
2023/12/24 07:02:11;;;;;;;0.73;0.30;;;12.70;72.80;;;;;;2281504;55;20928;-69
2023/12/24 07:04:38;;;;;;;1.08;0.30;;;12.70;72.70;;;;;;2281730;56;20964;-68
2023/12/24 07:07:04;;;;;;;0.62;0.28;;;12.70;72.80;;;;;;2513614;54;21516;-69
2023/12/24 07:09:30;;;;;;;0.50;0.30;;;12.70;72.80;;;;;;2280823;56;20940;-69
2023/12/24 07:11:57;;;;;;;2.17;0.75;;;12.70;72.90;;;;;;2280909;56;21024;-69
2023/12/24 07:14:24;;;;;;;1.33;0.52;;;12.70;73.60;;;;;;2283856;55;20920;-69
2023/12/24 07:16:51;;;;;;;2.30;0.73;;;12.90;73.00;;;;;;2513130;54;20945;-70
2023/12/24 07:19:17;;;;;;;1.17;0.40;;;12.80;72.60;;;;;;2281591;55;20960;-70
2023/12/24 07:21:44;;;;;;;0.75;0.28;;;12.80;72.90;;;;;;2280263;56;20948;-69
2023/12/24 07:24:11;;;;;;;0.55;0.30;;;12.80;72.90;;;;;;2281349;56;20932;-69
2023/12/24 07:26:37;;;;;;;1.05;0.30;;;12.80;72.90;;;;;;2280179;56;20968;-68
2023/12/24 07:29:03;;;;;;;0.32;0.20;;;12.80;72.60;;;;;;2514553;55;22294;-69
2023/12/24 07:31:31;;;;;;;0.60;0.30;;;12.80;72.90;;;;;;2281226;56;21011;-68
2023/12/24 07:33:57;;;;;;;0.30;0.30;;;12.80;72.50;;;;;;2513928;54;21984;-69
2023/12/24 07:36:25;;;;;;;0.20;0.13;;;12.80;72.50;;;;;;2281389;56;20964;-69
2023/12/24 07:38:52;;;;;;;0.80;0.20;;;12.80;72.70;;;;;;2280705;55;21474;-70
2023/12/24 07:41:18;;;;;;;0.43;0.20;;;12.80;72.60;;;;;;2281027;56;21067;-70
2023/12/24 07:43:44;;;;;;;0.75;0.30;;;12.80;72.50;;;;;;2280022;55;20916;-70
2023/12/24 07:46:11;;;;;;;0.32;0.20;;;12.80;72.80;;;;;;2281446;56;21019;-69
2023/12/24 07:48:46;;;;;;;0.62;0.50;;;12.80;72.60;;;;;;2513802;54;20979;-68
2023/12/24 07:51:13;;;;;;;0.75;0.30;;;12.80;72.50;;;;;;2266557;55;20984;-69
2023/12/24 07:53:41;;;;;;;0.68;0.30;;;12.80;72.90;;;;;;2513427;55;21055;-68
2023/12/24 07:56:08;;;;;;;0.82;0.32;;;12.80;72.90;;;;;;2281460;56;21091;-69
2023/12/24 07:58:34;;;;;;;0.68;0.30;;;12.80;72.70;;;;;;2281034;56;20968;-69
2023/12/24 08:01:00;;;;;;;0.77;0.40;;;12.80;72.90;;;;;;2272773;56;20945;-70
2023/12/24 08:03:26;;;;;;;1.98;0.30;;;12.80;72.50;;;;;;2273594;56;20981;-70
2023/12/24 08:05:56;;;;;;;1.08;0.35;;;12.80;72.60;;;;;;2499601;54;20980;-69
2023/12/24 08:08:22;;;;;;;1.05;0.40;;;12.90;72.60;;;;;;2514513;54;20948;-70
2023/12/24 08:10:49;;;;;;;1.23;0.50;;;12.90;72.50;;;;;;2513203;54;20952;-69
2023/12/24 08:13:38;;;;;;;0.68;0.40;;;12.70;72.50;;;;;;2494051;55;21494;-69
2023/12/24 08:16:06;;;;;;;1.50;0.45;;;12.90;72.00;;;;;;2513157;55;20980;-69
2023/12/24 08:18:32;;;;;;;1.67;0.47;;;12.90;72.80;;;;;;2518357;54;21517;-69
2023/12/24 08:20:59;;;;;;;1.27;0.40;;;12.90;72.80;;;;;;2283649;55;21823;-69
2023/12/24 08:23:25;;;;;;;0.50;0.35;;;12.90;72.80;;;;;;2281365;56;21026;-70
2023/12/24 08:25:51;;;;;;;0.45;0.32;;;12.90;72.90;;;;;;2512567;54;20936;-69
2023/12/24 08:28:18;;;;;;;0.82;0.35;;;12.90;72.90;;;;;;2281348;55;20955;-75
2023/12/24 08:30:47;;;;;;;0.55;0.30;;;13.00;73.10;;;;;;2274993;56;21004;-69
2023/12/24 08:33:16;;;;;;;1.05;0.40;;;12.90;72.80;;;;;;2482624;55;21066;-69
2023/12/24 08:35:42;;;;;;;0.70;0.40;;;12.90;72.80;;;;;;2500021;54;21003;-69
2023/12/24 08:38:11;;;;;;;1.25;0.50;;;13.00;72.90;;;;;;2530364;54;21015;-69
2023/12/24 08:40:37;;;;;;;0.98;0.40;;;13.00;72.90;;;;;;2294004;55;20959;-70
2023/12/24 08:43:04;;;;;;;1.48;0.50;;;13.00;73.10;;;;;;2294355;56;21016;-69
2023/12/24 08:45:30;;;;;;;1.08;0.50;;;13.00;73.10;;;;;;2531031;54;20968;-69
2023/12/24 08:47:59;;;;;;;1.67;0.60;;;13.10;73.30;;;;;;2529536;54;21503;-70
2023/12/24 08:50:28;;;;;;;1.02;0.40;;;13.00;73.10;;;;;;2294689;55;20957;-69
2023/12/24 08:52:54;;;;;;;1.05;0.40;;;13.10;73.00;;;;;;2293026;55;21011;-69
2023/12/24 08:55:22;;;;;;;2.08;0.35;;;13.10;73.30;;;;;;2531256;54;21422;-70
2023/12/24 08:57:48;;;;;;;1.10;0.47;;;13.10;73.30;;;;;;2294763;56;21000;-69
2023/12/24 09:00:18;;;;;;;1.40;0.50;;;13.10;72.70;;;;;;2530923;54;21016;-70
2023/12/24 09:02:47;;;;;;;1.13;0.50;;;13.10;72.90;;;;;;2530727;54;20972;-70
2023/12/24 09:05:14;;;;;;;1.50;0.60;;;13.10;73.00;;;;;;2294560;55;20976;-69
2023/12/24 09:07:40;;;;;;;2.80;0.65;;;13.10;73.00;;;;;;2529961;54;21339;-68
2023/12/24 09:10:07;;;;;;;1.95;0.90;;;13.10;73.00;;;;;;2527876;54;21027;-69
2023/12/24 09:12:33;;;;;;;2.37;0.80;;;13.10;73.10;;;;;;2293500;56;20973;-68
2023/12/24 09:15:01;;;;;;;2.80;0.60;;;13.20;73.10;;;;;;2529066;54;20963;-69
2023/12/24 09:17:28;;;;;;;1.37;0.60;;;13.20;73.10;;;;;;2293856;56;20947;-69
2023/12/24 09:19:54;;;;;;;1.75;0.70;;;13.20;72.80;;;;;;2286176;55;20977;-69
2023/12/24 09:22:20;;;;;;;1.00;0.40;;;13.20;72.90;;;;;;2526515;54;20984;-69
2023/12/24 09:24:47;;;;;;;1.75;0.40;;;13.20;73.00;;;;;;2530308;54;20951;-70
2023/12/24 09:27:15;;;;;;;1.12;0.40;;;13.20;73.10;;;;;;2530579;54;20932;-69
2023/12/24 09:29:45;;;;;;;1.75;0.57;;;13.20;72.70;;;;;;2294750;56;21031;-70
2023/12/24 09:32:11;;;;;;;1.20;0.50;;;13.20;72.60;;;;;;2529808;54;21003;-70
2023/12/24 09:34:38;;;;;;;1.27;0.43;;;13.20;72.70;;;;;;2294171;56;21098;-70
2023/12/24 09:37:04;;;;;;;0.95;0.40;;;13.30;72.80;;;;;;2294127;55;21083;-71
2023/12/24 09:39:30;;;;;;;1.12;0.40;;;13.20;72.80;;;;;;2294327;56;20956;-70
2023/12/24 09:41:58;;;;;;;2.08;0.62;;;13.20;72.60;;;;;;2293213;56;20976;-69
2023/12/24 09:44:26;;;;;;;1.67;0.55;;;13.20;72.80;;;;;;2294784;56;20947;-70
2023/12/24 09:46:53;;;;;;;1.30;0.50;;;13.20;72.70;;;;;;2529869;54;21759;-69
2023/12/24 09:49:19;;;;;;;0.80;0.45;;;13.20;72.70;;;;;;2530555;54;21051;-71
2023/12/24 09:51:45;;;;;;;1.65;0.50;;;13.20;72.80;;;;;;2294493;55;20953;-69
2023/12/24 09:54:12;;;;;;;1.30;0.50;;;13.20;72.60;;;;;;2295204;56;20936;-69
2023/12/24 09:56:38;;;;;;;1.17;0.40;;;13.10;72.60;;;;;;2530140;54;21845;-69
2023/12/24 09:59:04;;;;;;;2.47;0.47;;;13.20;72.70;;;;;;2529728;54;21266;-69
2023/12/24 10:01:42;;;;;;;0.70;0.30;;;13.10;72.60;;;;;;2530545;54;20948;-69
2023/12/24 10:04:09;;;;;;;2.62;0.50;;;13.10;72.40;;;;;;2294034;56;20967;-69
2023/12/24 10:06:54;;;;;;;0.80;0.30;;;13.10;72.70;;;;;;2518709;54;21468;-70
2023/12/24 10:09:25;;;;;;;0.68;0.37;;;13.10;72.00;;;;;;2267632;55;21581;-69
2023/12/24 10:12:04;;;;;;;1.00;0.50;;;13.10;72.80;;;;;;2482260;55;20983;-69
2023/12/24 10:14:30;;;;;;;0.75;0.32;;;13.20;72.40;;;;;;2483371;55;20987;-70
2023/12/24 10:17:06;;;;;;;2.33;0.50;;;13.20;73.00;;;;;;2480844;55;21925;-69
2023/12/24 10:19:35;;;;;;;1.67;0.60;;;13.10;72.60;;;;;;2254989;55;20964;-68
2023/12/24 10:22:09;;;;;;;2.65;0.70;;;13.20;72.90;;;;;;2489046;55;22256;-69
2023/12/24 10:24:40;;;;;;;2.08;0.60;;;13.20;72.60;;;;;;2262387;56;21699;-69
2023/12/24 10:27:08;;;;;;;;;;;13.10;72.80;;;;;;2258371;55;20943;-69
2023/12/24 10:29:35;;;;;;;2.37;0.40;;;13.20;71.50;;;;;;2484779;55;20070;-68
2023/12/24 10:32:02;;;;;;;1.02;0.47;;;13.20;72.90;;;;;;2255847;55;21472;-69
2023/12/24 10:34:30;;;;;;;1.30;0.47;;;13.20;72.90;;;;;;2260041;56;21020;-69
2023/12/24 10:36:58;;;;;;;1.83;0.60;;;13.20;73.10;;;;;;2255686;55;20942;-69
2023/12/24 10:39:24;;;;;;;0.90;0.30;;;13.20;73.10;;;;;;2274502;56;20950;-69
2023/12/24 10:41:55;;;;;;;1.27;0.57;;;13.20;73.10;;;;;;2221131;56;21018;-68
2023/12/24 10:44:22;;;;;;;1.00;0.40;;;13.20;72.90;;;;;;2488725;55;20934;-69
2023/12/24 10:46:48;;;;;;;0.47;0.30;;;13.30;73.10;;;;;;2255089;56;21042;-70
2023/12/24 10:49:15;;;;;;;2.37;0.52;;;13.20;73.10;;;;;;2272384;55;21013;-69
2023/12/24 10:51:42;;;;;;;1.00;0.43;;;13.30;73.10;;;;;;2257649;56;20987;-69
2023/12/24 10:54:11;;;;;;;1.40;0.52;;;13.30;73.20;;;;;;2254807;56;21347;-69
2023/12/24 10:59:34;;;;;;;1.27;0.43;;;13.30;73.00;;;;;;2261085;55;21043;-69
2023/12/24 11:02:00;;;;;;;1.35;0.40;;;13.30;72.10;;;;;;2254932;56;21094;-70
2023/12/24 11:04:45;;;;;;;1.20;0.50;;;13.30;72.80;;;;;;2256056;56;21821;-69
2023/12/24 11:07:57;;;;;;;0.98;0.43;;;13.30;72.10;;;;;;2255118;56;21030;-69
2023/12/24 11:10:43;;;;;;;1.05;0.40;;;13.40;71.80;;;;;;2256309;56;20964;-69
2023/12/24 11:13:42;;;;;;;1.73;0.60;;;13.40;72.30;;;;;;2260000;55;20960;-68
2023/12/24 11:16:09;;;;;;;1.05;0.40;;;13.40;71.70;;;;;;2489846;55;21897;-69
2023/12/24 11:18:45;;;;;;;1.17;0.40;;;13.40;73.10;;;;;;2255250;55;21033;-70
2023/12/24 11:21:13;;;;;;;0.62;0.40;;;13.40;72.60;;;;;;2283342;55;21031;-69
2023/12/24 11:23:40;;;;;;;0.85;0.40;;;13.40;72.90;;;;;;2294734;56;21820;-70
2023/12/24 11:26:31;;;;;;;0.90;0.47;;;13.40;73.00;;;;;;2294153;56;21904;-70
2023/12/24 11:29:09;;;;;;;2.62;0.68;;;13.40;72.20;;;;;;2295460;56;21467;-70
2023/12/24 11:31:36;;;;;;;0.70;0.37;;;13.40;73.10;;;;;;2519310;54;21028;-70
2023/12/24 11:34:44;;;;;;;1.02;0.45;;;13.50;73.00;;;;;;2291209;56;20971;-71
2023/12/24 11:37:11;;;;;;;1.15;0.50;;;13.50;72.20;;;;;;2530678;54;21829;-69
2023/12/24 11:40:02;;;;;;;1.45;0.50;;;13.50;73.10;;;;;;2295367;55;21075;-69
2023/12/24 11:42:46;;;;;;;1.05;0.50;;;13.50;72.40;;;;;;2489388;55;21053;-67
2023/12/24 11:45:29;;;;;;;0.90;0.35;;;13.50;72.50;;;;;;2482357;55;20986;-69
2023/12/24 11:47:55;;;;;;;1.43;0.50;;;13.60;72.60;;;;;;2260411;55;21399;-69
2023/12/24 11:50:22;;;;;;;2.85;0.50;;;13.60;73.30;;;;;;2256208;55;20938;-69
2023/12/24 11:52:49;;;;;;;1.67;0.35;;;13.60;73.40;;;;;;2502586;54;20904;-70
2023/12/24 11:55:18;;;;;;;1.10;0.57;;;13.60;73.30;;;;;;2276322;56;20986;-69
2023/12/24 11:57:45;;;;;;;3.28;0.50;;;13.60;73.10;;;;;;2250201;56;21022;-69
2023/12/24 12:00:23;;;;;;;1.77;0.52;;;13.60;73.20;;;;;;2482571;55;21009;-68
2023/12/24 12:02:58;;;;;;;2.87;0.60;;;13.70;72.70;;;;;;2257312;56;21877;-69
2023/12/24 12:05:25;;;;;;;1.60;0.57;;;13.70;72.60;;;;;;2255707;55;20993;-70
2023/12/24 12:07:52;;;;;;;3.78;0.50;;;13.70;73.20;;;;;;2483007;55;21030;-69
2023/12/24 12:10:19;;;;;;;1.10;0.50;;;13.70;73.10;;;;;;2484816;55;21019;-70
2023/12/24 12:12:46;;;;;;;2.10;0.47;;;13.70;73.00;;;;;;2474209;55;21047;-70
2023/12/24 12:15:13;;;;;;;1.37;0.50;;;13.70;73.10;;;;;;2481361;55;21008;-69
2023/12/24 12:17:42;;;;;;;1.05;0.50;;;13.70;73.00;;;;;;2255343;55;21019;-69
2023/12/24 12:20:10;;;;;;;2.53;0.90;;;13.70;73.00;;;;;;2489278;54;20974;-70
2023/12/24 12:22:36;;;;;;;1.73;0.57;;;13.70;72.80;;;;;;2256414;55;20970;-69
2023/12/24 12:25:04;;;;;;;1.48;0.60;;;13.70;72.90;;;;;;2471513;54;21075;-70
2023/12/24 12:27:32;;;;;;;1.10;0.57;;;13.70;72.80;;;;;;2473237;55;21148;-69
2023/12/24 12:29:58;;;;;;;1.95;0.73;;;13.70;72.80;;;;;;2254378;55;21002;-70
2023/12/24 12:32:25;;;;;;;1.50;0.50;;;13.70;72.80;;;;;;2260506;55;21684;-71
2023/12/24 12:34:52;;;;;;;1.20;0.50;;;13.70;72.70;;;;;;2501124;54;21005;-71
2023/12/24 12:37:21;;;;;;;1.10;0.60;;;13.70;72.70;;;;;;2243111;55;21021;-69
2023/12/24 12:39:48;;;;;;;1.40;0.50;;;13.70;72.70;;;;;;2254003;56;21098;-70
2023/12/24 12:42:17;;;;;;;1.02;0.45;;;13.70;72.60;;;;;;2483240;54;20947;-71
2023/12/24 12:44:44;;;;;;;0.95;0.50;;;13.70;72.50;;;;;;2483490;54;20998;-69
2023/12/24 12:47:15;;;;;;;1.17;0.40;;;13.60;72.60;;;;;;2254978;56;21072;-70
2023/12/24 12:49:41;;;;;;;1.27;0.50;;;13.60;72.40;;;;;;2482854;55;21788;-70
2023/12/24 12:52:11;;;;;;;1.10;0.50;;;13.60;72.60;;;;;;2255093;55;21372;-70
2023/12/24 12:54:37;;;;;;;1.00;0.40;;;13.60;72.70;;;;;;2483559;55;20978;-70
2023/12/24 12:57:04;;;;;;;1.15;0.50;;;13.60;72.80;;;;;;2258962;55;21087;-70
2023/12/24 12:59:31;;;;;;;1.55;0.70;;;13.60;73.60;;;;;;2475848;54;20978;-70
2023/12/24 13:01:59;;;;;;;0.80;0.40;;;13.50;72.80;;;;;;2240638;56;21035;-69
2023/12/24 13:04:41;;;;;;;1.17;0.50;;;13.50;72.80;;;;;;2255218;55;20966;-70